createdAt,value
2018-07-15T00:00:32.397Z,16.80
2018-07-15T00:02:59.264Z,16.90
2018-07-15T00:05:26.160Z,16.90
2018-07-15T00:07:53.067Z,16.90
2018-07-15T00:10:20.028Z,16.90
2018-07-15T00:12:46.903Z,16.90
2018-07-15T00:15:14.144Z,17.00
2018-07-15T00:17:41.163Z,17.00
2018-07-15T00:20:08.040Z,17.00
2018-07-15T00:22:34.952Z,17.10
2018-07-15T00:25:01.820Z,17.10
2018-07-15T00:27:28.735Z,17.10
2018-07-15T00:29:55.603Z,17.10
2018-07-15T00:32:22.539Z,17.10
2018-07-15T00:34:49.412Z,17.10
2018-07-15T00:37:16.296Z,17.10
2018-07-15T00:39:43.216Z,17.10
2018-07-15T00:42:10.083Z,17.10
2018-07-15T00:44:36.995Z,17.10
2018-07-15T00:47:03.864Z,17.00
2018-07-15T00:49:30.802Z,17.00
2018-07-15T00:51:57.684Z,17.00
2018-07-15T00:54:24.611Z,16.90
2018-07-15T00:56:51.600Z,16.90
2018-07-15T00:59:18.471Z,16.90
2018-07-15T01:01:45.428Z,16.80
2018-07-15T01:04:12.296Z,16.80
2018-07-15T01:06:40.347Z,16.70
2018-07-15T01:09:08.549Z,16.70
2018-07-15T01:11:36.318Z,16.70
2018-07-15T01:14:03.204Z,16.70
2018-07-15T01:16:30.123Z,16.60
2018-07-15T01:18:56.993Z,16.60
2018-07-15T01:21:23.938Z,16.50
2018-07-15T01:23:51.119Z,16.50
2018-07-15T01:26:17.991Z,16.40
2018-07-15T01:28:44.943Z,16.40
2018-07-15T01:31:11.807Z,16.40
2018-07-15T01:33:38.724Z,16.40
2018-07-15T01:36:05.591Z,16.30
2018-07-15T01:38:32.459Z,16.30
2018-07-15T01:40:59.679Z,16.30
2018-07-15T01:43:26.543Z,16.20
2018-07-15T01:45:53.516Z,16.20
2018-07-15T01:48:20.419Z,16.20
2018-07-15T01:50:47.545Z,16.20
2018-07-15T01:53:14.479Z,16.20
2018-07-15T01:55:41.352Z,16.20
2018-07-15T01:58:08.231Z,16.10
2018-07-15T02:00:35.148Z,16.00
2018-07-15T02:03:02.016Z,16.00
2018-07-15T02:05:28.935Z,15.90
2018-07-15T02:07:55.813Z,15.90
2018-07-15T02:10:22.727Z,15.80
2018-07-15T02:12:49.675Z,15.80
2018-07-15T02:15:16.621Z,15.70
2018-07-15T02:17:43.603Z,15.60
2018-07-15T02:20:10.518Z,15.50
2018-07-15T02:22:37.387Z,15.40
2018-07-15T02:25:04.304Z,15.40
2018-07-15T02:27:31.295Z,15.40
2018-07-15T02:29:58.207Z,15.30
2018-07-15T02:32:25.080Z,15.30
2018-07-15T02:34:51.996Z,15.20
2018-07-15T02:37:19.083Z,15.20
2018-07-15T02:39:45.999Z,15.10
2018-07-15T02:42:12.871Z,15.00
2018-07-15T02:44:39.795Z,15.00
2018-07-15T02:49:33.569Z,14.90
2018-07-15T02:52:00.447Z,14.90
2018-07-15T02:54:27.363Z,14.80
2018-07-15T02:56:54.240Z,14.70
2018-07-15T02:59:21.120Z,14.70
2018-07-15T03:01:48.060Z,14.60
2018-07-15T03:04:14.931Z,14.60
2018-07-15T03:06:41.804Z,14.60
2018-07-15T03:09:10.271Z,14.60
2018-07-15T03:11:37.471Z,14.60
2018-07-15T03:14:04.466Z,14.60
2018-07-15T03:16:31.344Z,14.50
2018-07-15T03:18:58.255Z,14.50
2018-07-15T03:21:25.173Z,14.40
2018-07-15T03:23:52.043Z,14.40
2018-07-15T03:26:18.964Z,14.30
2018-07-15T03:28:45.827Z,14.30
2018-07-15T03:31:12.711Z,14.30
2018-07-15T03:33:39.631Z,14.30
2018-07-15T03:36:06.504Z,14.30
2018-07-15T03:38:33.420Z,14.20
2018-07-15T03:41:00.338Z,14.20
2018-07-15T03:43:27.216Z,14.20
2018-07-15T03:45:54.140Z,14.20
2018-07-15T03:48:21.052Z,14.20
2018-07-15T03:50:47.927Z,14.20
2018-07-15T03:53:14.843Z,14.30
2018-07-15T03:55:42.032Z,14.30
2018-07-15T03:58:09.228Z,14.30
2018-07-15T04:00:36.151Z,14.30
2018-07-15T04:03:03.030Z,14.30
2018-07-15T04:05:29.975Z,14.40
2018-07-15T04:07:56.846Z,14.40
2018-07-15T04:10:23.795Z,14.50
2018-07-15T04:12:50.735Z,14.50
2018-07-15T04:15:17.779Z,14.50
2018-07-15T04:17:48.419Z,14.50
2018-07-15T04:20:15.330Z,14.60
2018-07-15T04:22:42.204Z,14.70
2018-07-15T04:25:09.131Z,14.80
2018-07-15T04:27:35.999Z,14.90
2018-07-15T04:30:02.867Z,14.90
2018-07-15T04:32:29.796Z,15.00
2018-07-15T04:34:56.666Z,15.10
2018-07-15T04:37:23.545Z,15.20
2018-07-15T04:39:50.449Z,15.30
2018-07-15T04:42:17.311Z,15.40
2018-07-15T04:44:44.224Z,15.40
2018-07-15T04:47:11.144Z,15.50
2018-07-15T04:49:38.060Z,15.70
2018-07-15T04:52:05.083Z,15.80
2018-07-15T04:54:32.001Z,15.90
2018-07-15T04:59:25.802Z,16.10
2018-07-15T05:01:52.688Z,16.20
2018-07-15T05:04:19.602Z,16.30
2018-07-15T05:06:46.471Z,16.40
2018-07-15T05:09:13.375Z,16.50
2018-07-15T05:11:40.288Z,16.60
2018-07-15T05:14:07.879Z,16.80
2018-07-15T05:16:35.122Z,17.00
2018-07-15T05:19:02.241Z,17.10
2018-07-15T05:21:29.184Z,17.20
2018-07-15T05:23:56.051Z,17.30
2018-07-15T05:26:22.923Z,17.40
2018-07-15T05:28:49.888Z,17.50
2018-07-15T05:31:16.763Z,17.60
2018-07-15T05:33:43.679Z,17.70
2018-07-15T05:36:10.551Z,17.80
2018-07-15T05:38:37.636Z,18.00
2018-07-15T05:41:04.756Z,18.10
2018-07-15T05:43:31.670Z,18.20
2018-07-15T05:45:58.588Z,18.30
2018-07-15T05:48:25.581Z,18.30
2018-07-15T05:50:52.496Z,18.40
2018-07-15T05:53:19.372Z,18.60
2018-07-15T05:55:46.883Z,18.60
2018-07-15T05:58:13.875Z,18.60
2018-07-15T06:00:40.790Z,18.70
2018-07-15T06:03:07.655Z,18.80
2018-07-15T06:05:34.577Z,18.60
2018-07-15T06:08:01.499Z,18.60
2018-07-15T06:10:28.372Z,18.80
2018-07-15T06:12:55.307Z,18.90
2018-07-15T06:15:22.264Z,19.20
2018-07-15T06:17:49.128Z,19.40
2018-07-15T06:20:16.045Z,19.60
2018-07-15T06:22:43.276Z,19.70
2018-07-15T06:25:10.172Z,19.80
2018-07-15T06:27:37.043Z,20.00
2018-07-15T06:30:03.952Z,20.40
2018-07-15T06:32:30.860Z,20.70
2018-07-15T06:34:57.772Z,21.10
2018-07-15T06:37:24.645Z,21.40
2018-07-15T06:39:51.651Z,21.90
2018-07-15T06:42:18.519Z,22.40
2018-07-15T06:44:45.699Z,22.40
2018-07-15T06:47:12.572Z,22.50
2018-07-15T06:49:39.491Z,22.70
2018-07-15T06:52:06.367Z,23.10
2018-07-15T06:54:33.242Z,23.40
2018-07-15T06:57:00.164Z,23.80
2018-07-15T06:59:27.034Z,24.10
2018-07-15T07:01:53.955Z,24.50
2018-07-15T07:04:20.867Z,25.00
2018-07-15T07:06:47.731Z,25.10
2018-07-15T07:09:15.248Z,24.70
2018-07-15T07:11:42.171Z,25.10
2018-07-15T07:14:09.177Z,24.70
2018-07-15T07:19:02.919Z,25.30
2018-07-15T07:21:29.850Z,26.00
2018-07-15T07:23:56.743Z,26.30
2018-07-15T07:26:23.640Z,26.80
2018-07-15T07:28:50.633Z,27.40
2018-07-15T07:31:17.454Z,27.80
2018-07-15T07:33:44.404Z,27.80
2018-07-15T07:36:11.343Z,28.10
2018-07-15T07:38:38.266Z,28.20
2018-07-15T07:41:05.157Z,27.90
2018-07-15T07:43:32.075Z,28.40
2018-07-15T07:45:58.943Z,28.60
2018-07-15T07:48:25.861Z,29.00
2018-07-15T07:50:52.727Z,28.50
2018-07-15T07:53:19.682Z,27.30
2018-07-15T07:55:46.595Z,27.60
2018-07-15T07:58:13.495Z,28.30
2018-07-15T08:00:40.404Z,29.10
2018-07-15T08:03:07.276Z,29.70
2018-07-15T08:05:34.212Z,30.20
2018-07-15T08:08:01.288Z,30.50
2018-07-15T08:10:28.199Z,30.40
2018-07-15T08:12:55.324Z,30.50
2018-07-15T08:15:22.302Z,31.00
2018-07-15T08:17:49.181Z,31.50
2018-07-15T08:20:16.092Z,32.00
2018-07-15T08:22:43.356Z,31.80
2018-07-15T08:25:10.163Z,31.80
2018-07-15T08:27:37.076Z,32.20
2018-07-15T08:30:09.671Z,32.10
2018-07-15T08:32:36.596Z,32.60
2018-07-15T08:35:03.520Z,33.20
2018-07-15T08:37:30.391Z,33.30
2018-07-15T08:39:57.260Z,33.80
2018-07-15T08:42:24.175Z,34.30
2018-07-15T08:44:51.043Z,34.40
2018-07-15T08:47:17.983Z,34.20
2018-07-15T08:49:44.868Z,33.80
2018-07-15T08:52:12.166Z,34.20
2018-07-15T08:54:39.045Z,34.60
2018-07-15T08:57:05.951Z,34.70
2018-07-15T08:59:32.877Z,35.70
2018-07-15T09:01:59.744Z,35.80
2018-07-15T09:04:26.620Z,36.00
2018-07-15T09:06:53.764Z,36.80
2018-07-15T09:09:20.627Z,36.40
2018-07-15T09:11:47.572Z,36.90
2018-07-15T09:14:14.482Z,35.80
2018-07-15T09:16:41.440Z,34.90
2018-07-15T09:19:08.305Z,34.30
2018-07-15T09:21:35.225Z,33.90
2018-07-15T09:24:19.988Z,34.00
2018-07-15T09:26:46.896Z,35.00
2018-07-15T09:29:13.812Z,35.20
2018-07-15T09:31:40.709Z,36.20
2018-07-15T09:34:07.577Z,36.70
2018-07-15T09:36:34.491Z,37.10
2018-07-15T09:39:01.409Z,37.70
2018-07-15T09:41:28.271Z,38.70
2018-07-15T09:43:55.179Z,39.40
2018-07-15T09:46:22.096Z,40.00
2018-07-15T09:48:49.003Z,40.60
2018-07-15T09:51:15.864Z,40.00
2018-07-15T09:53:42.789Z,40.20
2018-07-15T09:56:09.683Z,40.60
2018-07-15T09:58:36.594Z,40.40
2018-07-15T10:01:03.575Z,40.00
2018-07-15T10:03:30.444Z,40.50
2018-07-15T10:05:57.360Z,40.40
2018-07-15T10:08:24.227Z,40.20
2018-07-15T10:10:51.367Z,39.90
2018-07-15T10:13:18.284Z,39.50
2018-07-15T10:15:45.407Z,39.90
2018-07-15T10:18:12.347Z,39.80
2018-07-15T10:20:39.252Z,38.80
2018-07-15T10:23:06.161Z,39.40
2018-07-15T10:25:33.075Z,39.80
2018-07-15T10:28:00.025Z,39.20
2018-07-15T10:30:26.900Z,39.50
2018-07-15T10:32:53.816Z,40.10
2018-07-15T10:35:20.689Z,39.60
2018-07-15T10:37:47.888Z,40.10
2018-07-15T10:40:14.865Z,40.20
2018-07-15T10:42:41.736Z,39.90
2018-07-15T10:45:08.651Z,40.30
2018-07-15T10:47:35.524Z,41.00
2018-07-15T10:50:02.416Z,41.90
2018-07-15T10:52:29.336Z,42.90
2018-07-15T10:54:56.252Z,42.00
2018-07-15T10:57:23.124Z,41.20
2018-07-15T10:59:50.024Z,40.50
2018-07-15T11:02:16.919Z,40.70
2018-07-15T11:04:43.831Z,40.50
2018-07-15T11:07:10.700Z,40.40
2018-07-15T11:09:37.571Z,41.10
2018-07-15T11:12:04.744Z,42.40
2018-07-15T11:14:31.645Z,43.20
2018-07-15T11:16:58.902Z,42.90
2018-07-15T11:19:25.803Z,42.80
2018-07-15T11:21:52.842Z,43.70
2018-07-15T11:24:19.727Z,44.30
2018-07-15T11:26:46.604Z,44.70
2018-07-15T11:29:13.515Z,44.80
2018-07-15T11:31:40.683Z,44.20
2018-07-15T11:34:07.552Z,43.80
2018-07-15T11:36:34.467Z,43.50
2018-07-15T11:39:01.348Z,43.50
2018-07-15T11:41:28.552Z,43.30
2018-07-15T11:43:55.463Z,43.70
2018-07-15T11:46:22.331Z,43.70
2018-07-15T11:48:49.240Z,44.00
2018-07-15T11:51:16.150Z,44.00
2018-07-15T11:53:43.027Z,42.50
2018-07-15T11:56:09.943Z,40.90
2018-07-15T11:58:36.812Z,40.50
2018-07-15T12:01:04.429Z,41.10
2018-07-15T12:03:31.291Z,42.00
2018-07-15T12:05:58.212Z,42.80
2018-07-15T12:08:25.139Z,42.80
2018-07-15T12:10:52.879Z,42.40
2018-07-15T12:13:19.755Z,41.60
2018-07-15T12:15:46.736Z,41.30
2018-07-15T12:18:13.607Z,41.60
2018-07-15T12:20:40.524Z,41.10
2018-07-15T12:23:07.371Z,41.70
2018-07-15T12:25:34.264Z,42.10
2018-07-15T12:28:01.176Z,43.10
2018-07-15T12:30:28.044Z,43.30
2018-07-15T12:32:54.911Z,43.10
2018-07-15T12:35:21.858Z,42.80
2018-07-15T12:37:48.740Z,42.60
2018-07-15T12:40:15.660Z,42.20
2018-07-15T12:42:42.571Z,41.30
2018-07-15T12:45:09.435Z,41.90
2018-07-15T12:47:36.367Z,42.50
2018-07-15T12:50:03.259Z,42.80
2018-07-15T12:52:30.172Z,42.30
2018-07-15T12:54:57.128Z,42.80
2018-07-15T12:57:23.999Z,42.10
2018-07-15T13:02:17.783Z,41.50
2018-07-15T13:04:44.655Z,42.30
2018-07-15T13:07:11.571Z,41.90
2018-07-15T13:12:05.411Z,41.90
2018-07-15T13:14:32.288Z,41.40
2018-07-15T13:16:59.247Z,41.70
2018-07-15T13:19:26.160Z,41.10
2018-07-15T13:21:53.079Z,41.90
2018-07-15T13:24:19.950Z,42.60
2018-07-15T13:26:46.864Z,43.20
2018-07-15T13:29:13.732Z,40.90
2018-07-15T13:31:40.680Z,40.20
2018-07-15T13:34:07.594Z,39.60
2018-07-15T13:36:34.470Z,39.70
2018-07-15T13:39:01.387Z,40.10
2018-07-15T13:41:28.433Z,40.60
2018-07-15T13:43:55.275Z,41.60
2018-07-15T13:46:22.336Z,41.50
2018-07-15T13:48:49.351Z,40.90
2018-07-15T13:51:16.260Z,40.20
2018-07-15T13:53:43.175Z,40.10
2018-07-15T13:56:10.043Z,40.00
2018-07-15T13:58:37.003Z,40.50
2018-07-15T14:01:03.916Z,40.90
2018-07-15T14:03:30.787Z,40.90
2018-07-15T14:05:57.699Z,40.10
2018-07-15T14:08:24.559Z,39.20
2018-07-15T14:10:51.463Z,39.00
2018-07-15T14:13:18.363Z,40.00
2018-07-15T14:15:45.267Z,40.40
2018-07-15T14:18:12.220Z,40.70
2018-07-15T14:20:39.095Z,40.70
2018-07-15T14:23:06.168Z,40.90
2018-07-15T14:25:33.156Z,40.90
2018-07-15T14:28:00.136Z,41.30
2018-07-15T14:30:26.991Z,40.70
2018-07-15T14:32:53.863Z,39.90
2018-07-15T14:35:20.783Z,38.10
2018-07-15T14:37:47.683Z,36.90
2018-07-15T14:40:14.555Z,35.40
2018-07-15T14:42:41.552Z,35.40
2018-07-15T14:45:08.744Z,35.60
2018-07-15T14:47:35.668Z,35.60
2018-07-15T14:50:02.564Z,35.80
2018-07-15T14:52:29.487Z,36.50
2018-07-15T14:54:56.367Z,36.40
2018-07-15T14:57:23.280Z,36.70
2018-07-15T14:59:50.152Z,37.00
2018-07-15T15:02:17.266Z,37.20
2018-07-15T15:04:45.134Z,37.40
2018-07-15T15:07:13.616Z,36.30
2018-07-15T15:09:40.854Z,36.40
2018-07-15T15:12:08.577Z,35.70
2018-07-15T15:14:35.486Z,36.00
2018-07-15T15:17:02.395Z,35.70
2018-07-15T15:19:29.312Z,35.50
2018-07-15T15:24:23.150Z,35.20
2018-07-15T15:26:50.027Z,34.90
2018-07-15T15:29:16.946Z,34.80
2018-07-15T15:31:43.825Z,33.30
2018-07-15T15:34:10.776Z,32.30
2018-07-15T15:36:37.641Z,31.50
2018-07-15T15:39:04.916Z,31.00
2018-07-15T15:41:31.859Z,31.70
2018-07-15T15:43:58.731Z,32.50
2018-07-15T15:46:25.708Z,32.30
2018-07-15T15:48:52.579Z,32.40
2018-07-15T15:51:19.491Z,32.90
2018-07-15T15:53:46.404Z,33.40
2018-07-15T15:56:13.325Z,33.70
2018-07-15T15:58:40.192Z,34.00
2018-07-15T16:01:07.110Z,34.00
2018-07-15T16:03:34.011Z,34.30
2018-07-15T16:06:01.248Z,34.20
2018-07-15T16:08:28.408Z,33.70
2018-07-15T16:10:55.283Z,33.30
2018-07-15T16:13:22.243Z,33.10
2018-07-15T16:15:49.160Z,32.90
2018-07-15T16:18:16.075Z,32.70
2018-07-15T16:20:42.991Z,32.40
2018-07-15T16:23:09.948Z,32.00
2018-07-15T16:25:36.871Z,31.70
2018-07-15T16:28:03.940Z,31.40
2018-07-15T16:30:30.851Z,30.80
2018-07-15T16:32:57.775Z,30.10
2018-07-15T16:35:24.687Z,29.50
2018-07-15T16:37:51.964Z,28.70
2018-07-15T16:40:18.832Z,28.20
2018-07-15T16:42:45.750Z,27.80
2018-07-15T16:45:12.664Z,27.50
2018-07-15T16:47:39.598Z,27.50
2018-07-15T16:50:06.471Z,27.50
2018-07-15T16:52:33.386Z,27.40
2018-07-15T16:55:00.356Z,27.30
2018-07-15T16:57:27.272Z,27.20
2018-07-15T16:59:54.144Z,27.00
2018-07-15T17:02:21.059Z,26.80
2018-07-15T17:04:47.932Z,26.50
2018-07-15T17:07:14.848Z,26.10
2018-07-15T17:09:41.720Z,26.10
2018-07-15T17:12:08.640Z,26.10
2018-07-15T17:14:35.512Z,26.10
2018-07-15T17:17:02.472Z,26.10
2018-07-15T17:19:29.344Z,26.10
2018-07-15T17:21:56.271Z,26.10
2018-07-15T17:24:23.143Z,26.10
2018-07-15T17:26:50.137Z,26.00
2018-07-15T17:29:17.567Z,25.90
2018-07-15T17:31:44.435Z,25.80
2018-07-15T17:34:11.348Z,25.60
2018-07-15T17:36:38.243Z,25.60
2018-07-15T17:39:05.299Z,25.50
2018-07-15T17:41:32.172Z,25.30
2018-07-15T17:43:59.088Z,25.30
2018-07-15T17:46:25.972Z,25.20
2018-07-15T17:48:52.883Z,25.10
2018-07-15T17:51:19.799Z,24.90
2018-07-15T17:53:46.671Z,24.80
2018-07-15T17:56:13.588Z,24.70
2018-07-15T17:58:40.474Z,24.60
2018-07-15T18:01:07.504Z,24.40
2018-07-15T18:03:34.727Z,24.30
2018-07-15T18:06:01.592Z,24.20
2018-07-15T18:08:28.527Z,24.10
2018-07-15T18:10:55.395Z,24.00
2018-07-15T18:13:22.271Z,23.90
2018-07-15T18:15:49.208Z,23.80
2018-07-15T18:18:16.156Z,23.70
2018-07-15T18:20:43.372Z,23.60
2018-07-15T18:23:10.275Z,23.50
2018-07-15T18:25:37.491Z,23.40
2018-07-15T18:28:04.356Z,23.30
2018-07-15T18:30:31.283Z,23.20
2018-07-15T18:32:58.188Z,23.20
2018-07-15T18:35:25.065Z,23.10
2018-07-15T18:37:51.987Z,23.00
2018-07-15T18:40:18.888Z,22.90
2018-07-15T18:42:45.836Z,22.80
2018-07-15T18:45:12.716Z,22.70
2018-07-15T18:47:39.627Z,22.70
2018-07-15T18:50:06.498Z,22.50
2018-07-15T18:52:33.419Z,22.50
2018-07-15T18:55:00.290Z,22.30
2018-07-15T18:57:27.311Z,22.20
2018-07-15T18:59:54.219Z,22.10
2018-07-15T19:02:21.079Z,22.00
2018-07-15T19:04:47.991Z,21.90
2018-07-15T19:07:14.868Z,21.80
2018-07-15T19:09:41.905Z,21.70
2018-07-15T19:12:09.246Z,21.60
2018-07-15T19:14:36.160Z,21.40
2018-07-15T19:17:03.059Z,21.30
2018-07-15T19:19:29.975Z,21.20
2018-07-15T19:21:56.846Z,21.10
2018-07-15T19:24:23.779Z,21.00
2018-07-15T19:26:50.977Z,20.90
2018-07-15T19:29:17.871Z,20.80
2018-07-15T19:31:44.821Z,20.60
2018-07-15T19:34:11.734Z,20.50
2018-07-15T19:36:38.647Z,20.40
2018-07-15T19:39:06.045Z,20.30
2018-07-15T19:41:32.914Z,20.20
2018-07-15T19:43:59.819Z,20.10
2018-07-15T19:46:26.732Z,20.00
2018-07-15T19:48:53.663Z,19.90
2018-07-15T19:51:20.535Z,19.80
2018-07-15T19:53:47.419Z,19.70
2018-07-15T19:56:14.327Z,19.60
2018-07-15T19:58:41.232Z,19.50
2018-07-15T20:01:08.178Z,19.40
2018-07-15T20:03:35.035Z,19.30
2018-07-15T20:06:01.943Z,19.30
2018-07-15T20:08:28.810Z,19.20
2018-07-15T20:10:55.723Z,19.20
2018-07-15T20:13:22.675Z,19.20
2018-07-15T20:15:49.619Z,19.20
2018-07-15T20:18:16.488Z,19.10
2018-07-15T20:20:43.683Z,19.00
2018-07-15T20:23:10.602Z,19.00
2018-07-15T20:25:37.466Z,19.00
2018-07-15T20:28:04.371Z,18.90
2018-07-15T20:30:31.235Z,18.90
2018-07-15T20:32:58.143Z,18.80
2018-07-15T20:35:25.348Z,18.80
2018-07-15T20:37:52.544Z,18.70
2018-07-15T20:40:19.420Z,18.70
2018-07-15T20:42:46.343Z,18.70
2018-07-15T20:45:13.216Z,18.60
2018-07-15T20:47:40.132Z,18.50
2018-07-15T20:50:07.017Z,18.50
2018-07-15T20:52:33.963Z,18.50
2018-07-15T20:55:00.849Z,18.40
2018-07-15T20:57:27.774Z,18.30
2018-07-15T20:59:54.648Z,18.30
2018-07-15T21:02:21.691Z,18.30
2018-07-15T21:04:48.567Z,18.30
2018-07-15T21:07:15.562Z,18.30
2018-07-15T21:09:42.849Z,18.20
2018-07-15T21:12:10.028Z,18.10
2018-07-15T21:14:36.939Z,18.10
2018-07-15T21:17:03.891Z,18.00
2018-07-15T21:19:30.805Z,18.00
2018-07-15T21:21:57.676Z,18.00
2018-07-15T21:24:24.590Z,17.90
2018-07-15T21:26:51.479Z,18.00
2018-07-15T21:29:18.400Z,18.00
2018-07-15T21:31:45.318Z,18.00
2018-07-15T21:34:12.550Z,17.90
2018-07-15T21:36:39.424Z,17.90
2018-07-15T21:39:06.581Z,17.90
2018-07-15T21:41:33.479Z,17.90
2018-07-15T21:44:00.406Z,17.90
2018-07-15T21:46:27.283Z,17.80
2018-07-15T21:48:54.197Z,17.80
2018-07-15T21:51:21.122Z,17.70
2018-07-15T21:53:48.011Z,17.70
2018-07-15T21:56:14.948Z,17.70
2018-07-15T21:58:41.823Z,17.60
2018-07-15T22:01:08.739Z,17.50
2018-07-15T22:03:35.643Z,17.50
2018-07-15T22:06:02.567Z,17.50
2018-07-15T22:09:34.967Z,17.50
2018-07-15T22:12:02.123Z,17.50
2018-07-15T22:14:29.009Z,17.50
2018-07-15T22:16:55.916Z,17.40
2018-07-15T22:19:22.879Z,17.40
2018-07-15T22:21:49.964Z,17.30
2018-07-15T22:24:16.826Z,17.20
2018-07-15T22:26:43.739Z,17.20
2018-07-15T22:29:10.791Z,17.20
2018-07-15T22:31:38.203Z,17.20
2018-07-15T22:34:05.299Z,17.10
2018-07-15T22:36:32.876Z,17.10
2018-07-15T22:38:59.791Z,17.10
2018-07-15T22:41:26.658Z,17.00
2018-07-15T22:43:53.581Z,17.10
2018-07-15T22:46:20.487Z,17.00
2018-07-15T22:48:47.536Z,17.10
2018-07-15T22:51:14.456Z,17.00
2018-07-15T22:53:41.371Z,17.00
2018-07-15T22:56:08.292Z,17.00
2018-07-15T22:58:35.228Z,17.00
2018-07-15T23:01:02.119Z,17.00
2018-07-15T23:03:29.036Z,16.90
2018-07-15T23:06:02.147Z,16.80
2018-07-15T23:08:31.043Z,16.60
2018-07-15T23:10:57.951Z,16.60
2018-07-15T23:13:24.928Z,16.50
2018-07-15T23:15:52.029Z,16.50
2018-07-15T23:18:19.136Z,16.40
2018-07-15T23:20:46.739Z,16.40
2018-07-15T23:23:14.052Z,16.40
2018-07-15T23:25:40.967Z,16.40
2018-07-15T23:28:09.079Z,16.30
2018-07-15T23:30:36.676Z,16.20
2018-07-15T23:33:04.091Z,16.00
2018-07-15T23:35:31.242Z,16.00
2018-07-15T23:37:58.154Z,15.90
2018-07-15T23:40:25.237Z,15.80
2018-07-15T23:42:53.051Z,15.70
2018-07-15T23:45:20.192Z,15.70
2018-07-15T23:47:47.064Z,15.70
2018-07-15T23:50:13.988Z,15.70
2018-07-15T23:52:40.900Z,15.70
2018-07-15T23:55:07.771Z,15.70
2018-07-15T23:57:34.712Z,15.70
